sensor_id;sensor_type;location;lat;lon;timestamp;pressure;altitude;pressure_sealevel;temperature;humidity
58373;BME280;44177;43.356;27.672;2023-09-18T00:00:04;98774.78;;;13.22;80.95
58373;BME280;44177;43.356;27.672;2023-09-18T00:02:37;98756.66;;;13.17;81.11
58373;BME280;44177;43.356;27.672;2023-09-18T00:05:03;98757.22;;;13.10;80.98
58373;BME280;44177;43.356;27.672;2023-09-18T00:07:29;98754.59;;;13.14;80.70
58373;BME280;44177;43.356;27.672;2023-09-18T00:09:54;98749.47;;;13.13;81.48
58373;BME280;44177;43.356;27.672;2023-09-18T00:12:20;98766.72;;;13.13;81.95
58373;BME280;44177;43.356;27.672;2023-09-18T00:14:48;98744.72;;;13.09;84.06
58373;BME280;44177;43.356;27.672;2023-09-18T00:17:14;98757.97;;;13.23;85.00
58373;BME280;44177;43.356;27.672;2023-09-18T00:19:40;98752.06;;;13.21;85.51
58373;BME280;44177;43.356;27.672;2023-09-18T00:22:05;98750.28;;;13.13;83.27
58373;BME280;44177;43.356;27.672;2023-09-18T00:24:31;98742.41;;;13.11;82.36
58373;BME280;44177;43.356;27.672;2023-09-18T00:26:57;98747.09;;;13.11;83.26
58373;BME280;44177;43.356;27.672;2023-09-18T00:29:22;98746.09;;;13.03;81.50
58373;BME280;44177;43.356;27.672;2023-09-18T00:31:48;98740.50;;;13.00;81.13
58373;BME280;44177;43.356;27.672;2023-09-18T00:34:13;98742.19;;;12.88;81.52
58373;BME280;44177;43.356;27.672;2023-09-18T00:36:39;98751.06;;;12.85;81.24
58373;BME280;44177;43.356;27.672;2023-09-18T00:39:04;98747.88;;;12.83;81.55
58373;BME280;44177;43.356;27.672;2023-09-18T00:41:30;98746.63;;;12.80;80.75
58373;BME280;44177;43.356;27.672;2023-09-18T00:43:55;98746.78;;;12.72;81.00
58373;BME280;44177;43.356;27.672;2023-09-18T00:46:21;98743.16;;;12.68;81.44
58373;BME280;44177;43.356;27.672;2023-09-18T00:48:48;98740.41;;;12.68;82.47
58373;BME280;44177;43.356;27.672;2023-09-18T00:51:14;98739.16;;;12.65;83.36
58373;BME280;44177;43.356;27.672;2023-09-18T00:53:44;98729.97;;;12.57;84.03
58373;BME280;44177;43.356;27.672;2023-09-18T00:56:10;98742.00;;;12.69;85.01
58373;BME280;44177;43.356;27.672;2023-09-18T00:58:36;98745.78;;;12.64;83.44
58373;BME280;44177;43.356;27.672;2023-09-18T01:01:03;98724.97;;;12.47;82.11
58373;BME280;44177;43.356;27.672;2023-09-18T01:03:29;98732.50;;;12.50;81.06
58373;BME280;44177;43.356;27.672;2023-09-18T01:05:55;98737.50;;;12.48;80.41
58373;BME280;44177;43.356;27.672;2023-09-18T01:08:20;98727.50;;;12.40;80.13
58373;BME280;44177;43.356;27.672;2023-09-18T01:10:56;98737.53;;;12.36;80.69
58373;BME280;44177;43.356;27.672;2023-09-18T01:13:57;98732.41;;;12.34;80.17
58373;BME280;44177;43.356;27.672;2023-09-18T01:16:36;98734.78;;;12.36;81.69
58373;BME280;44177;43.356;27.672;2023-09-18T01:19:02;98734.00;;;12.35;81.51
58373;BME280;44177;43.356;27.672;2023-09-18T01:21:28;98727.28;;;12.32;80.87
58373;BME280;44177;43.356;27.672;2023-09-18T01:23:54;98725.69;;;12.31;80.84
58373;BME280;44177;43.356;27.672;2023-09-18T01:26:19;98717.16;;;12.21;80.01
58373;BME280;44177;43.356;27.672;2023-09-18T01:28:45;98726.38;;;12.28;80.40
58373;BME280;44177;43.356;27.672;2023-09-18T01:31:10;98732.28;;;12.30;80.22
58373;BME280;44177;43.356;27.672;2023-09-18T01:33:37;98731.63;;;12.34;80.26
58373;BME280;44177;43.356;27.672;2023-09-18T01:36:03;98730.03;;;12.32;79.82
58373;BME280;44177;43.356;27.672;2023-09-18T01:38:30;98733.91;;;12.31;80.17
58373;BME280;44177;43.356;27.672;2023-09-18T01:40:55;98732.19;;;12.27;80.86
58373;BME280;44177;43.356;27.672;2023-09-18T01:43:21;98737.44;;;12.20;81.33
58373;BME280;44177;43.356;27.672;2023-09-18T01:45:47;98738.00;;;12.13;82.46
58373;BME280;44177;43.356;27.672;2023-09-18T01:48:13;98728.66;;;12.14;83.70
58373;BME280;44177;43.356;27.672;2023-09-18T01:50:38;98745.53;;;12.16;82.93
58373;BME280;44177;43.356;27.672;2023-09-18T01:53:06;98734.84;;;12.11;80.88
58373;BME280;44177;43.356;27.672;2023-09-18T01:55:31;98738.00;;;12.13;81.53
58373;BME280;44177;43.356;27.672;2023-09-18T01:57:58;98742.34;;;12.14;81.35
58373;BME280;44177;43.356;27.672;2023-09-18T02:00:24;98739.63;;;12.14;82.08
58373;BME280;44177;43.356;27.672;2023-09-18T02:02:49;98738.72;;;12.10;82.03
58373;BME280;44177;43.356;27.672;2023-09-18T02:05:15;98747.72;;;12.10;82.33
58373;BME280;44177;43.356;27.672;2023-09-18T02:07:40;98742.94;;;12.07;82.95
58373;BME280;44177;43.356;27.672;2023-09-18T02:10:06;98733.81;;;12.03;81.57
58373;BME280;44177;43.356;27.672;2023-09-18T02:12:32;98739.63;;;12.02;81.28
58373;BME280;44177;43.356;27.672;2023-09-18T02:14:57;98737.94;;;11.97;81.00
58373;BME280;44177;43.356;27.672;2023-09-18T02:17:23;98735.50;;;11.95;80.63
58373;BME280;44177;43.356;27.672;2023-09-18T02:19:49;98742.78;;;11.91;80.79
58373;BME280;44177;43.356;27.672;2023-09-18T02:22:15;98736.63;;;11.82;80.96
58373;BME280;44177;43.356;27.672;2023-09-18T02:24:40;98742.44;;;11.80;81.53
58373;BME280;44177;43.356;27.672;2023-09-18T02:27:06;98744.84;;;11.82;82.78
58373;BME280;44177;43.356;27.672;2023-09-18T02:29:31;98737.75;;;11.81;82.05
58373;BME280;44177;43.356;27.672;2023-09-18T02:31:57;98743.22;;;11.81;81.39
58373;BME280;44177;43.356;27.672;2023-09-18T02:34:22;98725.81;;;11.73;80.76
58373;BME280;44177;43.356;27.672;2023-09-18T02:36:47;98744.03;;;11.81;80.66
58373;BME280;44177;43.356;27.672;2023-09-18T02:39:13;98735.84;;;11.81;81.07
58373;BME280;44177;43.356;27.672;2023-09-18T02:41:38;98751.00;;;11.79;81.15
58373;BME280;44177;43.356;27.672;2023-09-18T02:44:04;98739.13;;;11.75;82.65
58373;BME280;44177;43.356;27.672;2023-09-18T02:46:29;98752.56;;;11.80;82.46
58373;BME280;44177;43.356;27.672;2023-09-18T02:48:55;98749.06;;;11.79;81.48
58373;BME280;44177;43.356;27.672;2023-09-18T02:51:22;98750.75;;;11.84;82.43
58373;BME280;44177;43.356;27.672;2023-09-18T02:53:47;98742.56;;;11.84;81.45
58373;BME280;44177;43.356;27.672;2023-09-18T02:56:12;98740.84;;;11.79;83.18
58373;BME280;44177;43.356;27.672;2023-09-18T02:58:39;98740.06;;;11.79;83.38
58373;BME280;44177;43.356;27.672;2023-09-18T03:01:06;98699.72;;;11.51;83.20
58373;BME280;44177;43.356;27.672;2023-09-18T03:03:33;98735.16;;;11.72;82.51
58373;BME280;44177;43.356;27.672;2023-09-18T03:06:02;98747.34;;;11.87;85.79
58373;BME280;44177;43.356;27.672;2023-09-18T03:08:28;98741.88;;;11.87;85.68
58373;BME280;44177;43.356;27.672;2023-09-18T03:10:54;98739.59;;;11.89;87.07
58373;BME280;44177;43.356;27.672;2023-09-18T03:13:19;98749.31;;;11.99;88.33
58373;BME280;44177;43.356;27.672;2023-09-18T03:15:45;98751.25;;;11.98;86.61
58373;BME280;44177;43.356;27.672;2023-09-18T03:18:12;98743.16;;;12.02;87.29
58373;BME280;44177;43.356;27.672;2023-09-18T03:20:38;98754.56;;;12.04;86.98
58373;BME280;44177;43.356;27.672;2023-09-18T03:23:04;98746.91;;;11.97;84.73
58373;BME280;44177;43.356;27.672;2023-09-18T03:25:30;98753.97;;;11.98;85.96
58373;BME280;44177;43.356;27.672;2023-09-18T03:27:56;98756.03;;;12.02;87.22
58373;BME280;44177;43.356;27.672;2023-09-18T03:30:23;98749.66;;;11.97;86.64
58373;BME280;44177;43.356;27.672;2023-09-18T03:32:49;98740.53;;;11.93;85.51
58373;BME280;44177;43.356;27.672;2023-09-18T03:35:15;98763.66;;;12.08;86.02
58373;BME280;44177;43.356;27.672;2023-09-18T03:37:50;98750.09;;;12.12;87.01
58373;BME280;44177;43.356;27.672;2023-09-18T03:40:17;98749.97;;;12.08;86.81
58373;BME280;44177;43.356;27.672;2023-09-18T03:42:43;98749.78;;;12.13;86.90
58373;BME280;44177;43.356;27.672;2023-09-18T03:45:09;98750.19;;;12.15;86.81
58373;BME280;44177;43.356;27.672;2023-09-18T03:47:35;98743.25;;;12.06;85.18
58373;BME280;44177;43.356;27.672;2023-09-18T03:50:04;98753.06;;;12.07;84.38
58373;BME280;44177;43.356;27.672;2023-09-18T03:52:29;98755.81;;;12.07;83.54
58373;BME280;44177;43.356;27.672;2023-09-18T03:54:55;98728.09;;;12.08;88.32
58373;BME280;44177;43.356;27.672;2023-09-18T03:57:20;98760.94;;;12.21;87.52
58373;BME280;44177;43.356;27.672;2023-09-18T03:59:46;98760.81;;;12.17;86.21
58373;BME280;44177;43.356;27.672;2023-09-18T04:02:11;98753.53;;;12.09;86.00
58373;BME280;44177;43.356;27.672;2023-09-18T04:04:37;98754.78;;;12.11;86.06
58373;BME280;44177;43.356;27.672;2023-09-18T04:07:06;98678.22;;;11.62;85.13
58373;BME280;44177;43.356;27.672;2023-09-18T04:09:32;98732.09;;;11.98;84.25
58373;BME280;44177;43.356;27.672;2023-09-18T04:11:57;98758.19;;;12.21;85.94
58373;BME280;44177;43.356;27.672;2023-09-18T04:14:23;98750.56;;;12.26;86.62
58373;BME280;44177;43.356;27.672;2023-09-18T04:16:48;98757.59;;;12.40;87.35
58373;BME280;44177;43.356;27.672;2023-09-18T04:19:14;98755.97;;;12.51;88.69
58373;BME280;44177;43.356;27.672;2023-09-18T04:21:39;98752.28;;;12.59;89.25
58373;BME280;44177;43.356;27.672;2023-09-18T04:24:05;98761.63;;;12.71;89.82
58373;BME280;44177;43.356;27.672;2023-09-18T04:26:30;98761.56;;;12.83;89.93
58373;BME280;44177;43.356;27.672;2023-09-18T04:29:00;98761.44;;;12.92;89.56
58373;BME280;44177;43.356;27.672;2023-09-18T04:31:26;98774.19;;;13.00;88.87
58373;BME280;44177;43.356;27.672;2023-09-18T04:33:53;98770.16;;;13.10;87.75
58373;BME280;44177;43.356;27.672;2023-09-18T04:36:18;98781.19;;;13.14;86.80
58373;BME280;44177;43.356;27.672;2023-09-18T04:38:44;98769.19;;;13.18;86.48
58373;BME280;44177;43.356;27.672;2023-09-18T04:41:09;98784.41;;;13.32;86.70
58373;BME280;44177;43.356;27.672;2023-09-18T04:43:39;98785.31;;;13.36;86.85
58373;BME280;44177;43.356;27.672;2023-09-18T04:46:04;98771.56;;;13.48;86.65
58373;BME280;44177;43.356;27.672;2023-09-18T04:48:33;98767.88;;;13.56;86.83
58373;BME280;44177;43.356;27.672;2023-09-18T04:50:59;98789.91;;;13.76;87.37
58373;BME280;44177;43.356;27.672;2023-09-18T04:53:27;98719.94;;;13.50;86.85
58373;BME280;44177;43.356;27.672;2023-09-18T04:55:53;98763.09;;;13.85;87.00
58373;BME280;44177;43.356;27.672;2023-09-18T04:58:19;98778.50;;;14.06;87.41
58373;BME280;44177;43.356;27.672;2023-09-18T05:00:44;98788.94;;;14.16;88.04
58373;BME280;44177;43.356;27.672;2023-09-18T05:03:12;98771.13;;;14.26;88.31
58373;BME280;44177;43.356;27.672;2023-09-18T05:05:37;98779.53;;;14.53;88.15
58373;BME280;44177;43.356;27.672;2023-09-18T05:08:07;98770.47;;;14.68;87.66
58373;BME280;44177;43.356;27.672;2023-09-18T05:10:36;98766.25;;;14.91;86.93
58373;BME280;44177;43.356;27.672;2023-09-18T05:13:03;98779.38;;;15.21;86.26
58373;BME280;44177;43.356;27.672;2023-09-18T05:15:29;98779.84;;;15.46;86.17
58373;BME280;44177;43.356;27.672;2023-09-18T05:17:55;98776.38;;;15.72;85.61
58373;BME280;44177;43.356;27.672;2023-09-18T05:20:26;98771.63;;;15.92;84.66
58373;BME280;44177;43.356;27.672;2023-09-18T05:22:53;98769.69;;;16.20;83.59
58373;BME280;44177;43.356;27.672;2023-09-18T05:25:19;98773.72;;;16.53;82.91
58373;BME280;44177;43.356;27.672;2023-09-18T05:27:47;98776.94;;;16.89;80.68
58373;BME280;44177;43.356;27.672;2023-09-18T05:30:21;98774.47;;;17.14;79.67
58373;BME280;44177;43.356;27.672;2023-09-18T05:32:47;98773.94;;;17.35;78.50
58373;BME280;44177;43.356;27.672;2023-09-18T05:35:14;98750.91;;;17.58;77.18
58373;BME280;44177;43.356;27.672;2023-09-18T05:37:40;98771.78;;;18.01;75.69
58373;BME280;44177;43.356;27.672;2023-09-18T05:40:07;98772.34;;;18.24;75.15
58373;BME280;44177;43.356;27.672;2023-09-18T05:42:40;98753.53;;;18.44;74.30
58373;BME280;44177;43.356;27.672;2023-09-18T05:45:09;98765.81;;;18.54;72.78
58373;BME280;44177;43.356;27.672;2023-09-18T05:47:35;98766.38;;;18.85;72.69
58373;BME280;44177;43.356;27.672;2023-09-18T05:50:02;98760.16;;;19.10;71.74
58373;BME280;44177;43.356;27.672;2023-09-18T05:52:29;98767.31;;;19.25;71.08
58373;BME280;44177;43.356;27.672;2023-09-18T05:54:54;98754.72;;;19.53;69.94
58373;BME280;44177;43.356;27.672;2023-09-18T05:57:20;98763.47;;;19.81;68.99
58373;BME280;44177;43.356;27.672;2023-09-18T05:59:45;98758.72;;;20.03;68.06
58373;BME280;44177;43.356;27.672;2023-09-18T06:02:11;98762.25;;;20.25;67.24
58373;BME280;44177;43.356;27.672;2023-09-18T06:04:37;98768.16;;;20.52;66.03
58373;BME280;44177;43.356;27.672;2023-09-18T06:07:03;98765.72;;;20.80;65.08
58373;BME280;44177;43.356;27.672;2023-09-18T06:09:29;98756.91;;;21.07;63.67
58373;BME280;44177;43.356;27.672;2023-09-18T06:11:54;98761.84;;;21.41;62.72
58373;BME280;44177;43.356;27.672;2023-09-18T06:14:19;98769.94;;;21.81;60.66
58373;BME280;44177;43.356;27.672;2023-09-18T06:16:45;98775.63;;;22.12;59.82
58373;BME280;44177;43.356;27.672;2023-09-18T06:19:10;98774.66;;;22.29;59.07
58373;BME280;44177;43.356;27.672;2023-09-18T06:21:36;98768.63;;;22.42;58.12
58373;BME280;44177;43.356;27.672;2023-09-18T06:24:01;98772.81;;;22.57;57.75
58373;BME280;44177;43.356;27.672;2023-09-18T06:26:27;98769.44;;;22.73;57.56
58373;BME280;44177;43.356;27.672;2023-09-18T06:28:52;98765.41;;;23.12;56.20
58373;BME280;44177;43.356;27.672;2023-09-18T06:31:20;98762.47;;;23.54;55.16
58373;BME280;44177;43.356;27.672;2023-09-18T06:33:46;98764.22;;;23.95;53.62
58373;BME280;44177;43.356;27.672;2023-09-18T06:36:12;98749.28;;;24.29;52.11
58373;BME280;44177;43.356;27.672;2023-09-18T06:38:38;98764.63;;;24.62;50.99
58373;BME280;44177;43.356;27.672;2023-09-18T06:41:03;98766.13;;;24.66;50.47
58373;BME280;44177;43.356;27.672;2023-09-18T06:43:29;98763.78;;;25.05;49.76
58373;BME280;44177;43.356;27.672;2023-09-18T06:45:54;98770.78;;;25.50;49.16
58373;BME280;44177;43.356;27.672;2023-09-18T06:48:23;98764.44;;;25.82;47.69
58373;BME280;44177;43.356;27.672;2023-09-18T06:50:49;98765.13;;;26.20;46.72
58373;BME280;44177;43.356;27.672;2023-09-18T06:53:14;98768.53;;;26.57;45.76
58373;BME280;44177;43.356;27.672;2023-09-18T06:55:39;98769.22;;;26.77;44.14
58373;BME280;44177;43.356;27.672;2023-09-18T06:58:05;98756.31;;;27.22;43.47
58373;BME280;44177;43.356;27.672;2023-09-18T07:00:30;98753.75;;;27.54;41.92
58373;BME280;44177;43.356;27.672;2023-09-18T07:02:56;98755.38;;;27.90;40.70
58373;BME280;44177;43.356;27.672;2023-09-18T07:05:22;98755.63;;;27.83;40.30
58373;BME280;44177;43.356;27.672;2023-09-18T07:07:48;98747.44;;;28.36;39.98
58373;BME280;44177;43.356;27.672;2023-09-18T07:10:13;98744.94;;;28.16;38.22
58373;BME280;44177;43.356;27.672;2023-09-18T07:12:38;98744.25;;;28.12;37.58
58373;BME280;44177;43.356;27.672;2023-09-18T07:15:05;98760.34;;;27.60;38.43
58373;BME280;44177;43.356;27.672;2023-09-18T07:17:34;98751.91;;;26.95;38.08
58373;BME280;44177;43.356;27.672;2023-09-18T07:20:00;98747.47;;;27.24;38.12
58373;BME280;44177;43.356;27.672;2023-09-18T07:22:26;98752.28;;;27.62;38.10
58373;BME280;44177;43.356;27.672;2023-09-18T07:24:51;98737.16;;;27.60;36.59
58373;BME280;44177;43.356;27.672;2023-09-18T07:27:17;98747.28;;;27.44;36.91
58373;BME280;44177;43.356;27.672;2023-09-18T07:29:42;98750.72;;;27.61;37.01
58373;BME280;44177;43.356;27.672;2023-09-18T07:32:08;98746.94;;;27.55;36.16
58373;BME280;44177;43.356;27.672;2023-09-18T07:34:34;98753.50;;;27.35;35.33
58373;BME280;44177;43.356;27.672;2023-09-18T07:37:00;98756.91;;;26.88;36.00
58373;BME280;44177;43.356;27.672;2023-09-18T07:39:26;98767.69;;;25.64;37.88
58373;BME280;44177;43.356;27.672;2023-09-18T07:41:51;98760.28;;;25.37;37.87
58373;BME280;44177;43.356;27.672;2023-09-18T07:44:21;98749.09;;;25.74;38.09
58373;BME280;44177;43.356;27.672;2023-09-18T07:46:46;98762.72;;;26.80;36.99
58373;BME280;44177;43.356;27.672;2023-09-18T07:49:12;98764.25;;;26.39;37.21
58373;BME280;44177;43.356;27.672;2023-09-18T07:51:38;98752.38;;;25.85;37.57
58373;BME280;44177;43.356;27.672;2023-09-18T07:54:03;98761.56;;;25.86;38.24
58373;BME280;44177;43.356;27.672;2023-09-18T07:56:29;98748.91;;;25.98;37.68
58373;BME280;44177;43.356;27.672;2023-09-18T07:58:58;98742.97;;;25.63;38.05
58373;BME280;44177;43.356;27.672;2023-09-18T08:01:24;98756.16;;;26.12;36.87
58373;BME280;44177;43.356;27.672;2023-09-18T08:03:49;98706.19;;;24.95;37.70
58373;BME280;44177;43.356;27.672;2023-09-18T08:06:15;98754.94;;;24.70;39.25
58373;BME280;44177;43.356;27.672;2023-09-18T08:08:41;98749.88;;;25.21;39.13
58373;BME280;44177;43.356;27.672;2023-09-18T08:11:07;98737.50;;;25.02;38.89
58373;BME280;44177;43.356;27.672;2023-09-18T08:13:36;98734.94;;;24.91;39.00
58373;BME280;44177;43.356;27.672;2023-09-18T08:16:05;98749.84;;;24.65;38.04
58373;BME280;44177;43.356;27.672;2023-09-18T08:18:30;98728.56;;;24.31;37.73
58373;BME280;44177;43.356;27.672;2023-09-18T08:20:56;98749.56;;;24.15;39.01
58373;BME280;44177;43.356;27.672;2023-09-18T08:23:26;98740.03;;;24.97;38.40
58373;BME280;44177;43.356;27.672;2023-09-18T08:25:52;98734.84;;;26.01;36.15
58373;BME280;44177;43.356;27.672;2023-09-18T08:28:21;98738.25;;;25.76;36.95
58373;BME280;44177;43.356;27.672;2023-09-18T08:30:46;98736.50;;;25.99;36.03
58373;BME280;44177;43.356;27.672;2023-09-18T08:33:13;98736.50;;;25.99;37.10
58373;BME280;44177;43.356;27.672;2023-09-18T08:35:39;98721.09;;;26.95;35.04
58373;BME280;44177;43.356;27.672;2023-09-18T08:38:05;98704.16;;;27.89;33.55
58373;BME280;44177;43.356;27.672;2023-09-18T08:40:30;98706.31;;;28.20;31.61
58373;BME280;44177;43.356;27.672;2023-09-18T08:42:57;98703.47;;;28.78;29.48
58373;BME280;44177;43.356;27.672;2023-09-18T08:45:43;98702.00;;;28.95;29.07
58373;BME280;44177;43.356;27.672;2023-09-18T08:48:09;98693.06;;;29.19;27.76
58373;BME280;44177;43.356;27.672;2023-09-18T08:50:35;98702.38;;;29.38;26.77
58373;BME280;44177;43.356;27.672;2023-09-18T08:53:01;98708.56;;;29.83;26.54
58373;BME280;44177;43.356;27.672;2023-09-18T08:55:27;98694.97;;;29.72;26.17
58373;BME280;44177;43.356;27.672;2023-09-18T08:57:54;98691.88;;;30.07;25.42
58373;BME280;44177;43.356;27.672;2023-09-18T09:00:20;98693.19;;;31.05;25.22
58373;BME280;44177;43.356;27.672;2023-09-18T09:02:46;98695.00;;;30.65;23.47
58373;BME280;44177;43.356;27.672;2023-09-18T09:05:14;98706.09;;;30.04;22.89
58373;BME280;44177;43.356;27.672;2023-09-18T09:07:39;98707.06;;;30.38;23.70
58373;BME280;44177;43.356;27.672;2023-09-18T09:10:05;98715.19;;;30.64;23.61
58373;BME280;44177;43.356;27.672;2023-09-18T09:15:15;98716.00;;;31.16;23.42
58373;BME280;44177;43.356;27.672;2023-09-18T09:17:42;98710.00;;;30.71;25.02
58373;BME280;44177;43.356;27.672;2023-09-18T09:20:13;98705.56;;;30.98;25.26
58373;BME280;44177;43.356;27.672;2023-09-18T09:22:40;98713.34;;;31.46;25.37
58373;BME280;44177;43.356;27.672;2023-09-18T09:25:24;98702.25;;;31.00;25.04
58373;BME280;44177;43.356;27.672;2023-09-18T09:27:52;98703.69;;;30.86;24.37
58373;BME280;44177;43.356;27.672;2023-09-18T09:30:23;98700.63;;;30.56;24.41
58373;BME280;44177;43.356;27.672;2023-09-18T09:32:54;98701.38;;;30.75;22.38
58373;BME280;44177;43.356;27.672;2023-09-18T09:35:27;98690.09;;;30.84;24.39
58373;BME280;44177;43.356;27.672;2023-09-18T09:37:56;98697.81;;;30.65;25.40
58373;BME280;44177;43.356;27.672;2023-09-18T09:40:22;98693.50;;;31.74;24.45
58373;BME280;44177;43.356;27.672;2023-09-18T09:42:51;98664.50;;;31.98;24.11
58373;BME280;44177;43.356;27.672;2023-09-18T09:45:17;98705.00;;;31.86;24.43
58373;BME280;44177;43.356;27.672;2023-09-18T09:47:43;98707.22;;;30.25;26.48
58373;BME280;44177;43.356;27.672;2023-09-18T09:50:12;98682.28;;;31.31;25.69
58373;BME280;44177;43.356;27.672;2023-09-18T09:52:49;98704.41;;;29.97;27.24
58373;BME280;44177;43.356;27.672;2023-09-18T09:55:23;98695.91;;;29.78;27.85
58373;BME280;44177;43.356;27.672;2023-09-18T09:58:00;98621.69;;;28.98;28.72
58373;BME280;44177;43.356;27.672;2023-09-18T10:00:31;98697.25;;;29.14;29.24
58373;BME280;44177;43.356;27.672;2023-09-18T10:02:59;98698.00;;;28.74;28.16
58373;BME280;44177;43.356;27.672;2023-09-18T10:05:31;98673.31;;;29.91;27.54
58373;BME280;44177;43.356;27.672;2023-09-18T10:08:01;98683.31;;;30.58;26.14
58373;BME280;44177;43.356;27.672;2023-09-18T10:10:33;98684.09;;;31.10;24.93
58373;BME280;44177;43.356;27.672;2023-09-18T10:13:03;98677.38;;;30.00;27.01
58373;BME280;44177;43.356;27.672;2023-09-18T10:15:34;98672.56;;;29.41;28.76
58373;BME280;44177;43.356;27.672;2023-09-18T10:18:05;98677.25;;;29.12;29.31
58373;BME280;44177;43.356;27.672;2023-09-18T10:20:37;98676.19;;;28.56;30.14
58373;BME280;44177;43.356;27.672;2023-09-18T10:23:14;98643.31;;;28.34;30.73
58373;BME280;44177;43.356;27.672;2023-09-18T10:25:45;98664.72;;;30.04;29.46
58373;BME280;44177;43.356;27.672;2023-09-18T10:28:17;98665.91;;;29.85;29.63
58373;BME280;44177;43.356;27.672;2023-09-18T10:30:44;98670.50;;;29.32;30.05
58373;BME280;44177;43.356;27.672;2023-09-18T10:33:10;98669.19;;;29.55;30.04
58373;BME280;44177;43.356;27.672;2023-09-18T10:35:36;98667.97;;;30.49;29.63
58373;BME280;44177;43.356;27.672;2023-09-18T10:38:02;98661.69;;;30.73;28.13
58373;BME280;44177;43.356;27.672;2023-09-18T10:40:29;98662.94;;;31.15;28.27
58373;BME280;44177;43.356;27.672;2023-09-18T10:42:57;98668.78;;;31.35;27.39
58373;BME280;44177;43.356;27.672;2023-09-18T10:45:23;98653.28;;;31.89;25.58
58373;BME280;44177;43.356;27.672;2023-09-18T10:47:50;98665.78;;;31.06;26.60
58373;BME280;44177;43.356;27.672;2023-09-18T10:50:26;98650.69;;;31.52;26.56
58373;BME280;44177;43.356;27.672;2023-09-18T10:52:52;98642.78;;;31.65;25.97
58373;BME280;44177;43.356;27.672;2023-09-18T10:55:18;98653.53;;;31.76;26.21
58373;BME280;44177;43.356;27.672;2023-09-18T10:58:10;98646.91;;;31.30;26.77
58373;BME280;44177;43.356;27.672;2023-09-18T11:00:35;98649.00;;;31.21;26.93
58373;BME280;44177;43.356;27.672;2023-09-18T11:05:37;98636.41;;;31.31;27.40
58373;BME280;44177;43.356;27.672;2023-09-18T11:08:28;98647.84;;;30.04;28.25
58373;BME280;44177;43.356;27.672;2023-09-18T11:11:06;98626.22;;;30.57;27.84
58373;BME280;44177;43.356;27.672;2023-09-18T11:13:36;98642.88;;;30.79;28.41
58373;BME280;44177;43.356;27.672;2023-09-18T11:21:28;98617.28;;;30.59;28.33
58373;BME280;44177;43.356;27.672;2023-09-18T11:24:05;98640.41;;;30.72;28.84
58373;BME280;44177;43.356;27.672;2023-09-18T11:26:34;98652.66;;;31.36;28.22
58373;BME280;44177;43.356;27.672;2023-09-18T11:29:11;98646.72;;;30.58;29.01
58373;BME280;44177;43.356;27.672;2023-09-18T11:31:51;98614.63;;;30.98;28.59
58373;BME280;44177;43.356;27.672;2023-09-18T11:34:23;98635.09;;;31.41;27.15
58373;BME280;44177;43.356;27.672;2023-09-18T11:36:50;98642.53;;;31.54;26.75
58373;BME280;44177;43.356;27.672;2023-09-18T11:39:40;98640.03;;;31.80;27.08
58373;BME280;44177;43.356;27.672;2023-09-18T11:42:19;98641.44;;;30.93;28.34
58373;BME280;44177;43.356;27.672;2023-09-18T11:44:47;98635.88;;;31.42;28.13
58373;BME280;44177;43.356;27.672;2023-09-18T11:47:19;98633.53;;;31.89;28.12
58373;BME280;44177;43.356;27.672;2023-09-18T11:49:52;98623.19;;;31.71;27.92
58373;BME280;44177;43.356;27.672;2023-09-18T11:52:21;98568.41;;;31.38;28.64
58373;BME280;44177;43.356;27.672;2023-09-18T11:54:47;98618.63;;;32.42;27.55
58373;BME280;44177;43.356;27.672;2023-09-18T11:57:14;98627.25;;;32.09;26.24
58373;BME280;44177;43.356;27.672;2023-09-18T11:59:41;98624.56;;;31.90;27.59
58373;BME280;44177;43.356;27.672;2023-09-18T12:02:08;98621.06;;;31.80;26.46
58373;BME280;44177;43.356;27.672;2023-09-18T12:04:35;98621.41;;;31.25;27.78
58373;BME280;44177;43.356;27.672;2023-09-18T12:07:03;98637.00;;;30.49;28.70
58373;BME280;44177;43.356;27.672;2023-09-18T12:09:33;98632.47;;;29.09;30.63
58373;BME280;44177;43.356;27.672;2023-09-18T12:12:05;98628.78;;;29.21;31.05
58373;BME280;44177;43.356;27.672;2023-09-18T12:14:32;98639.53;;;28.28;32.08
58373;BME280;44177;43.356;27.672;2023-09-18T12:16:59;98641.00;;;26.59;34.43
58373;BME280;44177;43.356;27.672;2023-09-18T12:19:25;98634.34;;;26.95;34.49
58373;BME280;44177;43.356;27.672;2023-09-18T12:21:51;98631.81;;;27.97;32.84
58373;BME280;44177;43.356;27.672;2023-09-18T12:24:26;98615.28;;;28.34;32.02
58373;BME280;44177;43.356;27.672;2023-09-18T12:26:53;98615.22;;;28.79;31.89
58373;BME280;44177;43.356;27.672;2023-09-18T12:29:20;98614.50;;;29.38;31.26
58373;BME280;44177;43.356;27.672;2023-09-18T12:31:46;98619.53;;;29.71;29.34
58373;BME280;44177;43.356;27.672;2023-09-18T12:36:43;98607.81;;;30.90;27.98
58373;BME280;44177;43.356;27.672;2023-09-18T12:39:08;98608.28;;;30.27;29.30
58373;BME280;44177;43.356;27.672;2023-09-18T12:41:36;98621.44;;;29.92;29.87
58373;BME280;44177;43.356;27.672;2023-09-18T12:44:04;98618.91;;;29.76;29.65
58373;BME280;44177;43.356;27.672;2023-09-18T12:46:31;98618.88;;;29.48;30.25
58373;BME280;44177;43.356;27.672;2023-09-18T12:48:56;98622.47;;;28.98;31.71
58373;BME280;44177;43.356;27.672;2023-09-18T12:51:29;98626.50;;;29.38;31.29
58373;BME280;44177;43.356;27.672;2023-09-18T12:54:00;98598.72;;;28.90;31.50
58373;BME280;44177;43.356;27.672;2023-09-18T12:56:26;98621.59;;;27.68;33.49
58373;BME280;44177;43.356;27.672;2023-09-18T12:58:52;98624.00;;;27.44;34.64
58373;BME280;44177;43.356;27.672;2023-09-18T13:01:17;98611.94;;;28.27;33.00
58373;BME280;44177;43.356;27.672;2023-09-18T13:03:43;98614.91;;;28.86;32.10